sensor_id;sensor_type;location;lat;lon;timestamp;temperature;humidity
26164;DHT22;13914;48.178;11.716;2022-09-14T00:00:59;18.30;77.90
26164;DHT22;13914;48.178;11.716;2022-09-14T00:03:25;18.30;78.70
26164;DHT22;13914;48.178;11.716;2022-09-14T00:05:51;18.30;77.50
26164;DHT22;13914;48.178;11.716;2022-09-14T00:08:17;18.20;77.90
26164;DHT22;13914;48.178;11.716;2022-09-14T00:10:44;18.20;77.80
26164;DHT22;13914;48.178;11.716;2022-09-14T00:13:12;18.20;77.80
26164;DHT22;13914;48.178;11.716;2022-09-14T00:15:41;18.20;77.50
26164;DHT22;13914;48.178;11.716;2022-09-14T00:18:09;18.20;77.70
26164;DHT22;13914;48.178;11.716;2022-09-14T00:20:36;18.20;77.60
26164;DHT22;13914;48.178;11.716;2022-09-14T00:23:02;18.20;77.80
26164;DHT22;13914;48.178;11.716;2022-09-14T00:25:29;18.10;77.60
26164;DHT22;13914;48.178;11.716;2022-09-14T00:27:56;18.20;77.80
26164;DHT22;13914;48.178;11.716;2022-09-14T00:30:22;18.10;78.00
26164;DHT22;13914;48.178;11.716;2022-09-14T00:32:49;18.10;78.00
26164;DHT22;13914;48.178;11.716;2022-09-14T00:35:16;18.10;78.00
26164;DHT22;13914;48.178;11.716;2022-09-14T00:37:42;18.10;77.70
26164;DHT22;13914;48.178;11.716;2022-09-14T00:40:08;18.10;78.00
26164;DHT22;13914;48.178;11.716;2022-09-14T00:42:36;18.00;78.20
26164;DHT22;13914;48.178;11.716;2022-09-14T00:45:17;18.00;77.70
26164;DHT22;13914;48.178;11.716;2022-09-14T00:47:48;18.00;77.90
26164;DHT22;13914;48.178;11.716;2022-09-14T00:50:16;18.00;78.00
26164;DHT22;13914;48.178;11.716;2022-09-14T00:52:45;18.00;77.80
26164;DHT22;13914;48.178;11.716;2022-09-14T00:55:16;18.00;77.90
26164;DHT22;13914;48.178;11.716;2022-09-14T00:57:46;18.00;78.10
26164;DHT22;13914;48.178;11.716;2022-09-14T01:00:17;18.00;77.90
26164;DHT22;13914;48.178;11.716;2022-09-14T01:02:45;18.00;77.50
26164;DHT22;13914;48.178;11.716;2022-09-14T01:05:12;18.00;77.70
26164;DHT22;13914;48.178;11.716;2022-09-14T01:07:57;18.00;77.70
26164;DHT22;13914;48.178;11.716;2022-09-14T01:10:43;17.90;78.10
26164;DHT22;13914;48.178;11.716;2022-09-14T01:13:33;17.90;77.90
26164;DHT22;13914;48.178;11.716;2022-09-14T01:18:58;17.90;78.40
26164;DHT22;13914;48.178;11.716;2022-09-14T01:21:32;17.90;77.70
26164;DHT22;13914;48.178;11.716;2022-09-14T01:29:52;17.90;78.00
26164;DHT22;13914;48.178;11.716;2022-09-14T01:32:45;17.80;77.80
26164;DHT22;13914;48.178;11.716;2022-09-14T01:35:31;17.80;78.10
26164;DHT22;13914;48.178;11.716;2022-09-14T01:40:56;17.80;77.90
26164;DHT22;13914;48.178;11.716;2022-09-14T01:43:33;17.80;78.30
26164;DHT22;13914;48.178;11.716;2022-09-14T01:46:10;17.70;78.40
26164;DHT22;13914;48.178;11.716;2022-09-14T01:48:41;17.80;77.90
26164;DHT22;13914;48.178;11.716;2022-09-14T01:51:13;17.80;78.00
26164;DHT22;13914;48.178;11.716;2022-09-14T01:54:05;17.80;78.00
26164;DHT22;13914;48.178;11.716;2022-09-14T01:56:37;17.70;78.20
26164;DHT22;13914;48.178;11.716;2022-09-14T01:59:27;17.80;77.90
26164;DHT22;13914;48.178;11.716;2022-09-14T02:02:09;17.70;78.80
26164;DHT22;13914;48.178;11.716;2022-09-14T02:07:39;17.70;77.80
26164;DHT22;13914;48.178;11.716;2022-09-14T02:10:06;17.70;78.20
26164;DHT22;13914;48.178;11.716;2022-09-14T02:12:34;17.70;78.30
26164;DHT22;13914;48.178;11.716;2022-09-14T02:14:59;17.70;78.20
26164;DHT22;13914;48.178;11.716;2022-09-14T02:17:25;17.70;78.10
26164;DHT22;13914;48.178;11.716;2022-09-14T02:19:55;17.70;77.90
26164;DHT22;13914;48.178;11.716;2022-09-14T02:22:25;17.70;77.60
26164;DHT22;13914;48.178;11.716;2022-09-14T02:24:53;17.70;77.90
26164;DHT22;13914;48.178;11.716;2022-09-14T02:27:19;17.60;77.90
26164;DHT22;13914;48.178;11.716;2022-09-14T02:29:46;17.70;78.90
26164;DHT22;13914;48.178;11.716;2022-09-14T02:37:35;17.70;78.10
26164;DHT22;13914;48.178;11.716;2022-09-14T02:40:52;17.60;78.30
26164;DHT22;13914;48.178;11.716;2022-09-14T02:43:40;17.60;78.10
26164;DHT22;13914;48.178;11.716;2022-09-14T02:52:34;17.60;78.30
26164;DHT22;13914;48.178;11.716;2022-09-14T02:55:18;17.60;77.70
26164;DHT22;13914;48.178;11.716;2022-09-14T02:58:09;17.60;78.00
26164;DHT22;13914;48.178;11.716;2022-09-14T03:00:41;17.60;77.70
26164;DHT22;13914;48.178;11.716;2022-09-14T03:03:11;17.60;77.90
26164;DHT22;13914;48.178;11.716;2022-09-14T03:05:39;17.60;78.10
26164;DHT22;13914;48.178;11.716;2022-09-14T03:08:05;17.60;78.30
26164;DHT22;13914;48.178;11.716;2022-09-14T03:10:31;17.60;78.30
26164;DHT22;13914;48.178;11.716;2022-09-14T03:12:57;17.60;77.90
26164;DHT22;13914;48.178;11.716;2022-09-14T03:15:25;17.50;77.90
26164;DHT22;13914;48.178;11.716;2022-09-14T03:17:51;17.50;78.00
26164;DHT22;13914;48.178;11.716;2022-09-14T03:20:20;17.50;78.00
26164;DHT22;13914;48.178;11.716;2022-09-14T03:22:47;17.50;78.30
26164;DHT22;13914;48.178;11.716;2022-09-14T03:25:17;17.50;78.00
26164;DHT22;13914;48.178;11.716;2022-09-14T03:27:52;17.50;78.10
26164;DHT22;13914;48.178;11.716;2022-09-14T03:30:19;17.50;78.20
26164;DHT22;13914;48.178;11.716;2022-09-14T03:32:45;17.40;77.80
26164;DHT22;13914;48.178;11.716;2022-09-14T03:35:12;17.50;78.10
26164;DHT22;13914;48.178;11.716;2022-09-14T03:37:39;17.50;78.30
26164;DHT22;13914;48.178;11.716;2022-09-14T03:40:07;17.40;78.30
26164;DHT22;13914;48.178;11.716;2022-09-14T03:42:34;17.50;78.00
26164;DHT22;13914;48.178;11.716;2022-09-14T03:45:00;17.50;78.20
26164;DHT22;13914;48.178;11.716;2022-09-14T03:47:26;17.40;78.20
26164;DHT22;13914;48.178;11.716;2022-09-14T03:49:52;17.40;78.40
26164;DHT22;13914;48.178;11.716;2022-09-14T03:52:18;17.40;78.50
26164;DHT22;13914;48.178;11.716;2022-09-14T03:54:44;17.40;78.70
26164;DHT22;13914;48.178;11.716;2022-09-14T03:57:10;17.40;78.40
26164;DHT22;13914;48.178;11.716;2022-09-14T03:59:36;17.40;78.50
26164;DHT22;13914;48.178;11.716;2022-09-14T04:02:02;17.40;78.80
26164;DHT22;13914;48.178;11.716;2022-09-14T04:04:28;17.40;78.50
26164;DHT22;13914;48.178;11.716;2022-09-14T04:06:54;17.40;78.60
26164;DHT22;13914;48.178;11.716;2022-09-14T04:09:20;17.40;78.80
26164;DHT22;13914;48.178;11.716;2022-09-14T04:11:46;17.40;78.40
26164;DHT22;13914;48.178;11.716;2022-09-14T04:14:12;17.40;78.40
26164;DHT22;13914;48.178;11.716;2022-09-14T04:16:39;17.40;78.40
26164;DHT22;13914;48.178;11.716;2022-09-14T04:19:07;17.40;78.70
26164;DHT22;13914;48.178;11.716;2022-09-14T04:21:33;17.40;78.40
26164;DHT22;13914;48.178;11.716;2022-09-14T04:23:59;17.40;78.20
26164;DHT22;13914;48.178;11.716;2022-09-14T04:26:28;17.30;78.10
26164;DHT22;13914;48.178;11.716;2022-09-14T04:28:56;17.30;78.70
26164;DHT22;13914;48.178;11.716;2022-09-14T04:31:22;17.40;78.70
26164;DHT22;13914;48.178;11.716;2022-09-14T04:33:48;17.30;78.70
26164;DHT22;13914;48.178;11.716;2022-09-14T04:36:20;17.30;78.10
26164;DHT22;13914;48.178;11.716;2022-09-14T04:38:51;17.30;78.20
26164;DHT22;13914;48.178;11.716;2022-09-14T04:41:19;17.30;78.30
26164;DHT22;13914;48.178;11.716;2022-09-14T04:43:47;17.30;78.70
26164;DHT22;13914;48.178;11.716;2022-09-14T04:46:17;17.30;79.10
26164;DHT22;13914;48.178;11.716;2022-09-14T04:49:04;17.30;78.90
26164;DHT22;13914;48.178;11.716;2022-09-14T04:51:32;17.30;78.50
26164;DHT22;13914;48.178;11.716;2022-09-14T04:54:00;17.30;79.40
26164;DHT22;13914;48.178;11.716;2022-09-14T04:56:29;17.30;79.00
26164;DHT22;13914;48.178;11.716;2022-09-14T04:58:57;17.30;79.40
26164;DHT22;13914;48.178;11.716;2022-09-14T05:01:26;17.30;78.70
26164;DHT22;13914;48.178;11.716;2022-09-14T05:03:54;17.30;78.90
26164;DHT22;13914;48.178;11.716;2022-09-14T05:06:22;17.30;79.30
26164;DHT22;13914;48.178;11.716;2022-09-14T05:08:50;17.30;78.80
26164;DHT22;13914;48.178;11.716;2022-09-14T05:11:25;17.30;78.70
26164;DHT22;13914;48.178;11.716;2022-09-14T05:13:55;17.30;78.90
26164;DHT22;13914;48.178;11.716;2022-09-14T05:16:31;17.30;78.70
26164;DHT22;13914;48.178;11.716;2022-09-14T05:19:01;17.30;78.50
26164;DHT22;13914;48.178;11.716;2022-09-14T05:21:31;17.30;79.10
26164;DHT22;13914;48.178;11.716;2022-09-14T05:24:01;17.30;78.60
26164;DHT22;13914;48.178;11.716;2022-09-14T05:26:29;17.30;78.70
26164;DHT22;13914;48.178;11.716;2022-09-14T05:28:58;17.30;78.60
26164;DHT22;13914;48.178;11.716;2022-09-14T05:31:26;17.30;78.40
26164;DHT22;13914;48.178;11.716;2022-09-14T05:33:52;17.30;78.60
26164;DHT22;13914;48.178;11.716;2022-09-14T05:36:18;17.30;78.50
26164;DHT22;13914;48.178;11.716;2022-09-14T05:38:44;17.30;78.50
26164;DHT22;13914;48.178;11.716;2022-09-14T05:41:12;17.40;78.50
26164;DHT22;13914;48.178;11.716;2022-09-14T05:43:39;17.40;78.40
26164;DHT22;13914;48.178;11.716;2022-09-14T05:46:09;17.40;78.50
26164;DHT22;13914;48.178;11.716;2022-09-14T05:48:37;17.40;78.30
26164;DHT22;13914;48.178;11.716;2022-09-14T05:51:14;17.40;78.20
26164;DHT22;13914;48.178;11.716;2022-09-14T05:53:50;17.40;78.10
26164;DHT22;13914;48.178;11.716;2022-09-14T05:56:18;17.40;78.20
26164;DHT22;13914;48.178;11.716;2022-09-14T05:58:45;17.40;78.20
26164;DHT22;13914;48.178;11.716;2022-09-14T06:01:14;17.40;78.00
26164;DHT22;13914;48.178;11.716;2022-09-14T06:03:42;17.40;78.00
26164;DHT22;13914;48.178;11.716;2022-09-14T06:06:10;17.40;78.00
26164;DHT22;13914;48.178;11.716;2022-09-14T06:08:39;17.40;78.00
26164;DHT22;13914;48.178;11.716;2022-09-14T06:11:08;17.50;78.00
26164;DHT22;13914;48.178;11.716;2022-09-14T06:13:35;17.40;78.30
26164;DHT22;13914;48.178;11.716;2022-09-14T06:16:10;17.40;78.30
26164;DHT22;13914;48.178;11.716;2022-09-14T06:18:40;17.40;78.40
26164;DHT22;13914;48.178;11.716;2022-09-14T06:21:08;17.50;78.40
26164;DHT22;13914;48.178;11.716;2022-09-14T06:23:34;17.50;78.80
26164;DHT22;13914;48.178;11.716;2022-09-14T06:26:02;17.50;78.50
26164;DHT22;13914;48.178;11.716;2022-09-14T06:28:30;17.50;78.40
26164;DHT22;13914;48.178;11.716;2022-09-14T06:30:56;17.50;78.70
26164;DHT22;13914;48.178;11.716;2022-09-14T06:33:22;17.60;78.50
26164;DHT22;13914;48.178;11.716;2022-09-14T06:36:03;17.60;78.60
26164;DHT22;13914;48.178;11.716;2022-09-14T06:38:34;17.60;78.90
26164;DHT22;13914;48.178;11.716;2022-09-14T06:41:01;17.70;79.00
26164;DHT22;13914;48.178;11.716;2022-09-14T06:43:31;17.70;78.90
26164;DHT22;13914;48.178;11.716;2022-09-14T06:48:27;17.70;79.00
26164;DHT22;13914;48.178;11.716;2022-09-14T06:50:55;17.80;79.00
26164;DHT22;13914;48.178;11.716;2022-09-14T06:53:22;17.80;79.10
26164;DHT22;13914;48.178;11.716;2022-09-14T06:55:48;17.80;79.10
26164;DHT22;13914;48.178;11.716;2022-09-14T06:58:13;17.80;78.90
26164;DHT22;13914;48.178;11.716;2022-09-14T07:00:39;17.90;79.30
26164;DHT22;13914;48.178;11.716;2022-09-14T07:03:05;17.90;79.50
26164;DHT22;13914;48.178;11.716;2022-09-14T07:05:31;18.00;79.20
26164;DHT22;13914;48.178;11.716;2022-09-14T07:07:57;18.00;79.10
26164;DHT22;13914;48.178;11.716;2022-09-14T07:10:23;18.00;79.30
26164;DHT22;13914;48.178;11.716;2022-09-14T07:12:53;18.00;79.20
26164;DHT22;13914;48.178;11.716;2022-09-14T07:15:20;18.10;79.50
26164;DHT22;13914;48.178;11.716;2022-09-14T07:17:46;18.10;80.20
26164;DHT22;13914;48.178;11.716;2022-09-14T07:20:12;18.10;79.80
26164;DHT22;13914;48.178;11.716;2022-09-14T07:22:40;18.20;79.60
26164;DHT22;13914;48.178;11.716;2022-09-14T07:25:06;18.20;79.60
26164;DHT22;13914;48.178;11.716;2022-09-14T07:27:33;18.30;79.60
26164;DHT22;13914;48.178;11.716;2022-09-14T07:29:59;18.30;80.10
26164;DHT22;13914;48.178;11.716;2022-09-14T07:32:25;18.30;79.50
26164;DHT22;13914;48.178;11.716;2022-09-14T07:34:50;18.40;79.50
26164;DHT22;13914;48.178;11.716;2022-09-14T07:37:16;18.40;80.80
26164;DHT22;13914;48.178;11.716;2022-09-14T07:39:42;18.50;79.80
26164;DHT22;13914;48.178;11.716;2022-09-14T07:42:08;18.50;79.60
26164;DHT22;13914;48.178;11.716;2022-09-14T07:44:33;18.50;79.40
26164;DHT22;13914;48.178;11.716;2022-09-14T07:46:59;18.60;79.20
26164;DHT22;13914;48.178;11.716;2022-09-14T07:49:25;18.60;79.10
26164;DHT22;13914;48.178;11.716;2022-09-14T07:51:51;18.60;79.50
26164;DHT22;13914;48.178;11.716;2022-09-14T07:54:18;18.70;79.20
26164;DHT22;13914;48.178;11.716;2022-09-14T07:56:44;18.80;79.30
26164;DHT22;13914;48.178;11.716;2022-09-14T07:59:12;18.80;79.60
26164;DHT22;13914;48.178;11.716;2022-09-14T08:01:38;18.80;79.50
26164;DHT22;13914;48.178;11.716;2022-09-14T08:04:05;18.90;79.70
26164;DHT22;13914;48.178;11.716;2022-09-14T08:06:32;19.00;79.60
26164;DHT22;13914;48.178;11.716;2022-09-14T08:08:59;19.10;79.40
26164;DHT22;13914;48.178;11.716;2022-09-14T08:11:29;19.10;79.60
26164;DHT22;13914;48.178;11.716;2022-09-14T08:13:59;19.20;79.60
26164;DHT22;13914;48.178;11.716;2022-09-14T08:16:29;19.20;79.80
26164;DHT22;13914;48.178;11.716;2022-09-14T08:18:58;19.40;79.80
26164;DHT22;13914;48.178;11.716;2022-09-14T08:21:26;19.40;79.80
26164;DHT22;13914;48.178;11.716;2022-09-14T08:23:53;19.50;79.60
26164;DHT22;13914;48.178;11.716;2022-09-14T08:26:21;19.60;79.80
26164;DHT22;13914;48.178;11.716;2022-09-14T08:28:49;19.70;80.00
26164;DHT22;13914;48.178;11.716;2022-09-14T08:31:18;19.80;80.00
26164;DHT22;13914;48.178;11.716;2022-09-14T08:33:59;19.90;79.70
26164;DHT22;13914;48.178;11.716;2022-09-14T08:36:29;20.00;79.80
26164;DHT22;13914;48.178;11.716;2022-09-14T08:38:57;20.00;79.90
26164;DHT22;13914;48.178;11.716;2022-09-14T08:44:19;20.20;79.80
26164;DHT22;13914;48.178;11.716;2022-09-14T08:47:27;20.30;79.70
26164;DHT22;13914;48.178;11.716;2022-09-14T08:52:43;20.50;79.30
26164;DHT22;13914;48.178;11.716;2022-09-14T08:55:28;20.60;79.20
26164;DHT22;13914;48.178;11.716;2022-09-14T09:01:01;20.80;78.90
26164;DHT22;13914;48.178;11.716;2022-09-14T09:06:15;21.10;78.80
26164;DHT22;13914;48.178;11.716;2022-09-14T09:09:05;21.20;78.70
26164;DHT22;13914;48.178;11.716;2022-09-14T09:11:40;21.40;78.70
26164;DHT22;13914;48.178;11.716;2022-09-14T09:14:30;21.50;78.60
26164;DHT22;13914;48.178;11.716;2022-09-14T09:17:02;21.60;78.30
26164;DHT22;13914;48.178;11.716;2022-09-14T09:19:33;21.80;78.30
26164;DHT22;13914;48.178;11.716;2022-09-14T09:22:05;21.90;78.00
26164;DHT22;13914;48.178;11.716;2022-09-14T09:24:42;22.00;78.00
26164;DHT22;13914;48.178;11.716;2022-09-14T09:27:11;22.20;77.60
26164;DHT22;13914;48.178;11.716;2022-09-14T09:29:38;22.30;77.50
26164;DHT22;13914;48.178;11.716;2022-09-14T09:32:07;22.50;77.40
26164;DHT22;13914;48.178;11.716;2022-09-14T09:34:37;22.60;77.50
26164;DHT22;13914;48.178;11.716;2022-09-14T09:37:03;22.80;76.90
26164;DHT22;13914;48.178;11.716;2022-09-14T09:39:30;22.90;77.30
26164;DHT22;13914;48.178;11.716;2022-09-14T09:42:00;23.10;77.30
26164;DHT22;13914;48.178;11.716;2022-09-14T09:44:28;23.20;76.60
26164;DHT22;13914;48.178;11.716;2022-09-14T09:46:58;23.30;76.10
26164;DHT22;13914;48.178;11.716;2022-09-14T09:49:35;23.50;76.40
26164;DHT22;13914;48.178;11.716;2022-09-14T09:52:10;23.60;76.10
26164;DHT22;13914;48.178;11.716;2022-09-14T09:54:39;23.70;75.30
26164;DHT22;13914;48.178;11.716;2022-09-14T09:57:30;23.80;74.20
26164;DHT22;13914;48.178;11.716;2022-09-14T10:02:52;24.10;73.80
26164;DHT22;13914;48.178;11.716;2022-09-14T10:05:22;24.10;74.10
26164;DHT22;13914;48.178;11.716;2022-09-14T10:08:04;24.20;73.50
26164;DHT22;13914;48.178;11.716;2022-09-14T10:12:59;24.30;73.30
26164;DHT22;13914;48.178;11.716;2022-09-14T10:15:33;24.40;73.00
26164;DHT22;13914;48.178;11.716;2022-09-14T10:28:28;24.70;72.80
26164;DHT22;13914;48.178;11.716;2022-09-14T10:33:36;25.00;72.00
26164;DHT22;13914;48.178;11.716;2022-09-14T10:36:11;25.10;72.00
26164;DHT22;13914;48.178;11.716;2022-09-14T10:41:54;25.30;72.00
26164;DHT22;13914;48.178;11.716;2022-09-14T10:50:27;25.60;69.90
26164;DHT22;13914;48.178;11.716;2022-09-14T10:56:22;25.70;70.20
26164;DHT22;13914;48.178;11.716;2022-09-14T11:04:56;25.80;70.50
26164;DHT22;13914;48.178;11.716;2022-09-14T11:10:45;25.90;69.30
26164;DHT22;13914;48.178;11.716;2022-09-14T11:24:32;26.10;69.50
26164;DHT22;13914;48.178;11.716;2022-09-14T11:30:14;26.20;70.00
26164;DHT22;13914;48.178;11.716;2022-09-14T11:32:56;26.30;70.50
26164;DHT22;13914;48.178;11.716;2022-09-14T11:35:40;26.30;70.30
26164;DHT22;13914;48.178;11.716;2022-09-14T11:38:24;26.40;70.70
26164;DHT22;13914;48.178;11.716;2022-09-14T11:43:55;26.50;68.70
26164;DHT22;13914;48.178;11.716;2022-09-14T11:46:33;26.60;68.30
26164;DHT22;13914;48.178;11.716;2022-09-14T11:49:12;26.70;69.20
26164;DHT22;13914;48.178;11.716;2022-09-14T11:51:57;26.70;67.60
26164;DHT22;13914;48.178;11.716;2022-09-14T11:54:27;26.70;67.70
26164;DHT22;13914;48.178;11.716;2022-09-14T11:57:01;26.80;68.40
26164;DHT22;13914;48.178;11.716;2022-09-14T11:59:49;26.90;65.90
26164;DHT22;13914;48.178;11.716;2022-09-14T12:12:39;27.10;67.10
26164;DHT22;13914;48.178;11.716;2022-09-14T12:36:09;27.30;67.70
26164;DHT22;13914;48.178;11.716;2022-09-14T12:57:18;27.40;67.80
26164;DHT22;13914;48.178;11.716;2022-09-14T13:00:11;27.40;65.60
26164;DHT22;13914;48.178;11.716;2022-09-14T13:05:51;27.30;66.00
26164;DHT22;13914;48.178;11.716;2022-09-14T13:08:19;27.40;67.90
26164;DHT22;13914;48.178;11.716;2022-09-14T13:10:50;27.30;66.20
26164;DHT22;13914;48.178;11.716;2022-09-14T13:13:21;27.30;66.10
26164;DHT22;13914;48.178;11.716;2022-09-14T13:15:57;27.30;66.30
26164;DHT22;13914;48.178;11.716;2022-09-14T13:18:34;27.30;65.90
26164;DHT22;13914;48.178;11.716;2022-09-14T13:21:20;27.20;66.70
26164;DHT22;13914;48.178;11.716;2022-09-14T13:23:47;27.20;67.50
26164;DHT22;13914;48.178;11.716;2022-09-14T13:26:25;27.20;67.70
26164;DHT22;13914;48.178;11.716;2022-09-14T13:28:54;27.20;66.80
26164;DHT22;13914;48.178;11.716;2022-09-14T13:31:32;27.10;66.60
26164;DHT22;13914;48.178;11.716;2022-09-14T13:34:00;27.00;65.90
26164;DHT22;13914;48.178;11.716;2022-09-14T13:36:42;27.00;67.20
26164;DHT22;13914;48.178;11.716;2022-09-14T13:41:58;26.90;66.10
26164;DHT22;13914;48.178;11.716;2022-09-14T13:44:30;26.90;66.90
26164;DHT22;13914;48.178;11.716;2022-09-14T13:47:01;26.80;67.00
26164;DHT22;13914;48.178;11.716;2022-09-14T13:49:29;26.80;67.30
26164;DHT22;13914;48.178;11.716;2022-09-14T13:52:29;26.80;68.10
26164;DHT22;13914;48.178;11.716;2022-09-14T13:54:54;26.80;68.10
26164;DHT22;13914;48.178;11.716;2022-09-14T14:03:28;26.70;68.10
26164;DHT22;13914;48.178;11.716;2022-09-14T14:05:56;26.70;69.00
26164;DHT22;13914;48.178;11.716;2022-09-14T14:08:35;26.70;68.80
26164;DHT22;13914;48.178;11.716;2022-09-14T14:11:04;26.60;69.10
26164;DHT22;13914;48.178;11.716;2022-09-14T14:13:34;26.60;69.10
26164;DHT22;13914;48.178;11.716;2022-09-14T14:16:21;26.60;69.30
26164;DHT22;13914;48.178;11.716;2022-09-14T14:18:51;26.50;68.30
26164;DHT22;13914;48.178;11.716;2022-09-14T14:23:51;26.40;69.30
26164;DHT22;13914;48.178;11.716;2022-09-14T14:26:24;26.40;69.20
26164;DHT22;13914;48.178;11.716;2022-09-14T14:28:52;26.40;69.90
26164;DHT22;13914;48.178;11.716;2022-09-14T14:31:20;26.40;70.20
26164;DHT22;13914;48.178;11.716;2022-09-14T14:33:48;26.30;69.50
26164;DHT22;13914;48.178;11.716;2022-09-14T14:36:16;26.30;68.80
26164;DHT22;13914;48.178;11.716;2022-09-14T14:38:43;26.20;70.00
26164;DHT22;13914;48.178;11.716;2022-09-14T14:41:16;26.20;70.30
26164;DHT22;13914;48.178;11.716;2022-09-14T14:43:44;26.20;69.70
26164;DHT22;13914;48.178;11.716;2022-09-14T14:46:11;26.10;70.40
26164;DHT22;13914;48.178;11.716;2022-09-14T14:48:39;26.10;70.20
26164;DHT22;13914;48.178;11.716;2022-09-14T14:51:06;26.00;70.20
26164;DHT22;13914;48.178;11.716;2022-09-14T14:53:36;26.00;70.50
26164;DHT22;13914;48.178;11.716;2022-09-14T14:56:02;26.00;70.50
26164;DHT22;13914;48.178;11.716;2022-09-14T14:58:28;25.90;70.80
26164;DHT22;13914;48.178;11.716;2022-09-14T15:00:53;25.90;71.00
26164;DHT22;13914;48.178;11.716;2022-09-14T15:03:20;25.90;71.00
26164;DHT22;13914;48.178;11.716;2022-09-14T15:05:47;25.80;71.00
26164;DHT22;13914;48.178;11.716;2022-09-14T15:08:16;25.80;71.00
26164;DHT22;13914;48.178;11.716;2022-09-14T15:10:44;25.70;70.70
26164;DHT22;13914;48.178;11.716;2022-09-14T15:13:12;25.70;70.80
26164;DHT22;13914;48.178;11.716;2022-09-14T15:15:39;25.60;70.40
26164;DHT22;13914;48.178;11.716;2022-09-14T15:18:07;25.60;70.40
26164;DHT22;13914;48.178;11.716;2022-09-14T15:20:33;25.50;70.40
26164;DHT22;13914;48.178;11.716;2022-09-14T15:22:59;25.50;70.50
26164;DHT22;13914;48.178;11.716;2022-09-14T15:25:25;25.40;70.50
26164;DHT22;13914;48.178;11.716;2022-09-14T15:27:51;25.30;68.80
26164;DHT22;13914;48.178;11.716;2022-09-14T15:30:17;25.30;69.60
26164;DHT22;13914;48.178;11.716;2022-09-14T15:32:42;25.20;68.40
26164;DHT22;13914;48.178;11.716;2022-09-14T15:35:11;25.00;68.10
26164;DHT22;13914;48.178;11.716;2022-09-14T15:37:38;24.80;67.30
26164;DHT22;13914;48.178;11.716;2022-09-14T15:40:04;24.70;67.40
26164;DHT22;13914;48.178;11.716;2022-09-14T15:42:30;24.60;67.10
26164;DHT22;13914;48.178;11.716;2022-09-14T15:44:56;24.50;67.90
26164;DHT22;13914;48.178;11.716;2022-09-14T15:47:22;24.40;68.30
26164;DHT22;13914;48.178;11.716;2022-09-14T15:49:51;24.40;68.30
26164;DHT22;13914;48.178;11.716;2022-09-14T15:52:17;24.30;68.00
26164;DHT22;13914;48.178;11.716;2022-09-14T15:54:43;24.30;68.10
26164;DHT22;13914;48.178;11.716;2022-09-14T15:57:10;24.30;69.00
26164;DHT22;13914;48.178;11.716;2022-09-14T15:59:37;24.20;68.60
26164;DHT22;13914;48.178;11.716;2022-09-14T16:02:03;24.20;69.50
26164;DHT22;13914;48.178;11.716;2022-09-14T16:04:36;24.10;70.00
26164;DHT22;13914;48.178;11.716;2022-09-14T16:07:04;24.00;70.60
26164;DHT22;13914;48.178;11.716;2022-09-14T16:09:34;23.80;71.90
26164;DHT22;13914;48.178;11.716;2022-09-14T16:12:02;23.70;72.50
26164;DHT22;13914;48.178;11.716;2022-09-14T16:14:27;23.60;72.80
26164;DHT22;13914;48.178;11.716;2022-09-14T16:16:53;23.60;72.70
26164;DHT22;13914;48.178;11.716;2022-09-14T16:19:19;23.60;72.70
26164;DHT22;13914;48.178;11.716;2022-09-14T16:21:45;23.60;72.90
26164;DHT22;13914;48.178;11.716;2022-09-14T16:24:14;23.50;73.00
26164;DHT22;13914;48.178;11.716;2022-09-14T16:26:43;23.50;73.10
26164;DHT22;13914;48.178;11.716;2022-09-14T16:29:11;23.40;73.30
26164;DHT22;13914;48.178;11.716;2022-09-14T16:31:40;23.30;73.80
26164;DHT22;13914;48.178;11.716;2022-09-14T16:34:22;23.20;74.00
26164;DHT22;13914;48.178;11.716;2022-09-14T16:36:50;23.10;74.40
26164;DHT22;13914;48.178;11.716;2022-09-14T16:39:21;23.00;74.30
26164;DHT22;13914;48.178;11.716;2022-09-14T16:41:50;22.90;74.90
26164;DHT22;13914;48.178;11.716;2022-09-14T16:44:21;22.90;74.90
26164;DHT22;13914;48.178;11.716;2022-09-14T16:46:49;22.80;74.70
26164;DHT22;13914;48.178;11.716;2022-09-14T16:49:16;22.80;74.60
26164;DHT22;13914;48.178;11.716;2022-09-14T16:51:43;22.80;74.60
26164;DHT22;13914;48.178;11.716;2022-09-14T16:54:13;22.70;74.70
26164;DHT22;13914;48.178;11.716;2022-09-14T16:56:44;22.70;74.90
26164;DHT22;13914;48.178;11.716;2022-09-14T16:59:11;22.70;74.80
26164;DHT22;13914;48.178;11.716;2022-09-14T17:01:42;22.60;74.90
26164;DHT22;13914;48.178;11.716;2022-09-14T17:04:15;22.60;74.90
26164;DHT22;13914;48.178;11.716;2022-09-14T17:06:45;22.50;74.90
26164;DHT22;13914;48.178;11.716;2022-09-14T17:09:17;22.50;75.10
26164;DHT22;13914;48.178;11.716;2022-09-14T17:11:55;22.40;75.10
26164;DHT22;13914;48.178;11.716;2022-09-14T17:14:31;22.30;75.20
26164;DHT22;13914;48.178;11.716;2022-09-14T17:16:58;22.30;75.10
26164;DHT22;13914;48.178;11.716;2022-09-14T17:19:25;22.30;75.30
26164;DHT22;13914;48.178;11.716;2022-09-14T17:21:51;22.20;75.40
26164;DHT22;13914;48.178;11.716;2022-09-14T17:24:18;22.10;75.50
26164;DHT22;13914;48.178;11.716;2022-09-14T17:26:44;22.10;75.70
26164;DHT22;13914;48.178;11.716;2022-09-14T17:29:11;22.00;75.60
26164;DHT22;13914;48.178;11.716;2022-09-14T17:31:39;22.00;75.80
26164;DHT22;13914;48.178;11.716;2022-09-14T17:34:07;22.00;75.80
26164;DHT22;13914;48.178;11.716;2022-09-14T17:36:34;21.90;76.00
26164;DHT22;13914;48.178;11.716;2022-09-14T17:39:02;21.80;75.90
26164;DHT22;13914;48.178;11.716;2022-09-14T17:41:30;21.80;76.20
26164;DHT22;13914;48.178;11.716;2022-09-14T17:44:01;21.70;76.00
26164;DHT22;13914;48.178;11.716;2022-09-14T17:46:29;21.70;76.20
26164;DHT22;13914;48.178;11.716;2022-09-14T17:48:57;21.60;76.50
26164;DHT22;13914;48.178;11.716;2022-09-14T17:51:25;21.50;76.50
26164;DHT22;13914;48.178;11.716;2022-09-14T17:53:53;21.50;76.50
26164;DHT22;13914;48.178;11.716;2022-09-14T17:56:21;21.40;76.70
26164;DHT22;13914;48.178;11.716;2022-09-14T17:58:56;21.40;76.70
26164;DHT22;13914;48.178;11.716;2022-09-14T18:01:30;21.30;76.70
26164;DHT22;13914;48.178;11.716;2022-09-14T18:03:59;21.30;76.70
26164;DHT22;13914;48.178;11.716;2022-09-14T18:06:32;21.30;76.70
26164;DHT22;13914;48.178;11.716;2022-09-14T18:09:03;21.20;76.80
26164;DHT22;13914;48.178;11.716;2022-09-14T18:11:32;21.10;76.80
26164;DHT22;13914;48.178;11.716;2022-09-14T18:13:58;21.10;77.00
26164;DHT22;13914;48.178;11.716;2022-09-14T18:16:24;21.00;76.90